createdAt,value
2023-11-12T00:00:16.263Z,1.20
2023-11-12T00:05:21.011Z,1.23
2023-11-12T00:10:24.746Z,1.87
2023-11-12T00:15:28.457Z,1.97
2023-11-12T00:20:31.965Z,2.40
2023-11-12T00:25:36.046Z,1.33
2023-11-12T00:30:39.701Z,1.00
2023-11-12T00:35:43.505Z,1.57
2023-11-12T00:40:48.010Z,1.70
2023-11-12T00:45:59.512Z,0.90
2023-11-12T00:51:03.463Z,3.35
2023-11-12T00:56:09.196Z,2.10
2023-11-12T01:01:15.495Z,2.20
2023-11-12T01:06:19.244Z,0.97
2023-11-12T01:11:22.952Z,1.50
2023-11-12T01:16:27.196Z,2.87
2023-11-12T01:21:30.862Z,1.77
2023-11-12T01:26:35.244Z,2.80
2023-11-12T01:31:38.860Z,2.30
2023-11-12T01:36:42.693Z,2.20
2023-11-12T01:41:46.406Z,1.80
2023-11-12T01:46:52.646Z,1.57
2023-11-12T01:51:56.290Z,2.47
2023-11-12T01:57:01.769Z,2.13
2023-11-12T02:02:06.558Z,0.83
2023-11-12T02:07:10.190Z,2.27
2023-11-12T02:12:14.712Z,1.63
2023-11-12T02:17:18.490Z,3.30
2023-11-12T02:22:22.048Z,1.97
2023-11-12T02:27:25.609Z,1.93
2023-11-12T02:32:36.032Z,1.47
2023-11-12T02:37:40.054Z,1.37
2023-11-12T02:42:44.608Z,1.50
2023-11-12T02:47:48.642Z,2.10
2023-11-12T02:52:55.011Z,1.77
2023-11-12T02:57:59.666Z,1.93
2023-11-12T03:03:03.979Z,2.07
2023-11-12T03:08:07.900Z,1.63
2023-11-12T03:13:11.531Z,3.27
2023-11-12T03:18:15.377Z,2.23
2023-11-12T03:23:19.200Z,2.57
2023-11-12T03:28:22.751Z,2.77
2023-11-12T03:33:29.073Z,1.93
2023-11-12T03:38:33.138Z,3.43
2023-11-12T03:43:36.775Z,1.67
2023-11-12T03:48:40.515Z,3.53
2023-11-12T03:53:43.982Z,1.40
2023-11-12T03:58:47.832Z,1.60
2023-11-12T04:03:53.207Z,1.37
2023-11-12T04:08:57.049Z,3.93
2023-11-12T04:14:00.704Z,3.10
2023-11-12T04:19:05.013Z,1.40
2023-11-12T04:24:09.584Z,1.83
2023-11-12T04:29:14.569Z,1.30
2023-11-12T04:34:18.184Z,2.13
2023-11-12T04:39:21.938Z,1.73
2023-11-12T04:44:26.455Z,1.37
2023-11-12T04:49:30.180Z,1.70
2023-11-12T04:54:34.134Z,2.67
2023-11-12T04:59:42.164Z,3.77
2023-11-12T05:04:46.001Z,2.53
2023-11-12T05:09:49.793Z,1.90
2023-11-12T05:14:53.419Z,2.00
2023-11-12T05:19:57.246Z,2.33
2023-11-12T05:25:01.069Z,2.93
2023-11-12T05:30:05.222Z,2.73
2023-11-12T05:35:09.942Z,1.20
2023-11-12T05:40:13.885Z,1.67
2023-11-12T05:45:19.196Z,1.23
2023-11-12T05:50:24.401Z,1.63
2023-11-12T05:55:29.695Z,2.57
2023-11-12T06:00:33.729Z,2.93
2023-11-12T06:05:37.507Z,1.97
2023-11-12T06:10:44.425Z,2.10
2023-11-12T06:15:48.229Z,2.57
2023-11-12T06:20:52.010Z,5.30
2023-11-12T06:25:55.842Z,6.73
2023-11-12T06:30:59.383Z,1.03
2023-11-12T06:36:03.198Z,3.43
2023-11-12T06:41:09.852Z,2.43
2023-11-12T06:46:13.636Z,2.80
2023-11-12T06:51:25.097Z,2.53
2023-11-12T06:56:36.605Z,2.80
2023-11-12T07:01:40.372Z,2.10
2023-11-12T07:06:57.139Z,2.10
2023-11-12T07:12:08.571Z,2.53
2023-11-12T07:17:15.421Z,4.80
2023-11-12T07:22:19.947Z,1.97
2023-11-12T07:27:24.649Z,1.77
2023-11-12T07:32:28.344Z,2.00
2023-11-12T07:37:32.003Z,1.97
2023-11-12T07:42:35.962Z,2.80
2023-11-12T07:47:40.228Z,2.77
2023-11-12T07:52:44.155Z,2.50
2023-11-12T07:57:48.372Z,2.50
2023-11-12T08:02:53.072Z,1.90
2023-11-12T08:07:56.997Z,2.73
2023-11-12T08:13:00.744Z,2.40
2023-11-12T08:18:06.618Z,3.30
2023-11-12T08:23:10.459Z,2.07
2023-11-12T08:28:14.361Z,2.67
2023-11-12T08:33:18.632Z,2.47
2023-11-12T08:38:22.438Z,6.67
2023-11-12T08:43:26.032Z,3.17
2023-11-12T08:48:33.147Z,2.53
2023-11-12T08:53:38.363Z,2.77
2023-11-12T08:58:42.111Z,2.93
2023-11-12T09:03:45.774Z,2.37
2023-11-12T09:08:49.370Z,3.27
2023-11-12T09:13:52.993Z,3.50
2023-11-12T09:18:57.188Z,2.87
2023-11-12T09:24:01.357Z,1.57
2023-11-12T09:29:05.171Z,2.37
2023-11-12T09:34:08.886Z,2.80
2023-11-12T09:39:14.383Z,2.97
2023-11-12T09:44:35.434Z,3.53
2023-11-12T09:49:43.867Z,3.07
2023-11-12T09:54:48.607Z,3.37
2023-11-12T09:59:53.172Z,3.57
2023-11-12T10:05:02.137Z,2.63
2023-11-12T10:10:25.703Z,1.77
2023-11-12T10:15:34.948Z,3.40
2023-11-12T10:20:41.521Z,1.10
2023-11-12T10:25:49.712Z,1.60
2023-11-12T10:30:55.167Z,2.63
2023-11-12T10:36:10.206Z,4.80
2023-11-12T10:41:14.042Z,5.57
2023-11-12T10:46:17.889Z,4.00
2023-11-12T10:51:21.797Z,2.57
2023-11-12T10:56:28.484Z,2.23
2023-11-12T11:01:35.483Z,1.80
2023-11-12T11:06:42.345Z,2.00
2023-11-12T11:11:50.497Z,5.10
2023-11-12T11:16:54.984Z,2.07
2023-11-12T11:22:30.852Z,3.73
2023-11-12T11:27:34.751Z,3.00
2023-11-12T11:32:38.679Z,4.40
2023-11-12T11:38:11.466Z,1.97
2023-11-12T11:43:24.631Z,2.27
2023-11-12T11:48:28.975Z,5.70
2023-11-12T11:53:33.281Z,4.33
2023-11-12T11:58:52.860Z,2.00
2023-11-12T12:04:07.198Z,5.27
2023-11-12T12:09:18.052Z,3.43
2023-11-12T12:14:25.677Z,10.63
2023-11-12T12:19:29.436Z,5.80
2023-11-12T12:29:39.432Z,59.77
2023-11-12T12:34:46.315Z,3.93
2023-11-12T12:39:54.672Z,5.03
2023-11-12T12:44:59.904Z,14.33
2023-11-12T12:50:17.181Z,4.40
2023-11-12T12:55:22.678Z,4.10
2023-11-12T13:00:26.790Z,4.07
2023-11-12T13:05:30.418Z,4.27
2023-11-12T13:10:35.333Z,3.77
2023-11-12T13:15:39.156Z,8.47
2023-11-12T13:20:44.124Z,8.93
2023-11-12T13:25:51.164Z,3.50
2023-11-12T13:30:55.420Z,3.60
2023-11-12T13:36:01.273Z,1.43
2023-11-12T13:41:05.408Z,12.00
2023-11-12T13:46:09.113Z,2.27
2023-11-12T13:51:15.642Z,2.17
2023-11-12T13:56:19.341Z,3.03
2023-11-12T14:01:24.923Z,8.83
2023-11-12T14:06:28.561Z,4.10
2023-11-12T14:11:32.080Z,5.20
2023-11-12T14:16:39.004Z,5.23
2023-11-12T14:21:46.526Z,5.27
2023-11-12T14:26:51.177Z,5.03
2023-11-12T14:31:54.816Z,4.90
2023-11-12T14:36:58.886Z,62.57
2023-11-12T14:42:04.430Z,19.20
2023-11-12T14:47:07.998Z,26.67
2023-11-12T14:52:12.565Z,17.10
2023-11-12T14:57:17.864Z,7.63
2023-11-12T15:02:21.860Z,10.17
2023-11-12T15:07:25.786Z,36.90
2023-11-12T15:12:30.720Z,48.97
2023-11-12T15:17:34.328Z,60.77
2023-11-12T15:22:38.714Z,30.20
2023-11-12T15:27:46.587Z,57.93
2023-11-12T15:32:50.472Z,35.17
2023-11-12T15:37:54.284Z,16.30
2023-11-12T15:42:58.491Z,17.20
2023-11-12T15:48:02.107Z,21.70
2023-11-12T15:53:06.136Z,29.13
2023-11-12T15:58:12.369Z,12.90
2023-11-12T16:03:18.860Z,13.50
2023-11-12T16:08:22.943Z,10.80
2023-11-12T16:13:26.896Z,12.10
2023-11-12T16:18:30.341Z,9.67
2023-11-12T16:23:34.304Z,15.47
2023-11-12T16:28:39.544Z,23.13
2023-11-12T16:33:43.352Z,24.37
2023-11-12T16:38:46.911Z,12.47
2023-11-12T16:43:50.648Z,15.90
2023-11-12T16:48:54.968Z,13.03
2023-11-12T16:53:58.538Z,9.53
2023-11-12T16:59:02.034Z,9.13
2023-11-12T17:04:06.145Z,7.03
2023-11-12T17:09:13.417Z,10.33
2023-11-12T17:14:18.286Z,8.60
2023-11-12T17:19:22.379Z,9.23
2023-11-12T17:24:25.932Z,9.03
2023-11-12T17:29:29.564Z,7.40
2023-11-12T17:34:33.237Z,9.30
2023-11-12T17:39:37.148Z,9.17
2023-11-12T17:44:43.102Z,8.50
2023-11-12T17:49:56.470Z,11.27
2023-11-12T17:55:00.250Z,7.27
2023-11-12T18:00:07.372Z,9.87
2023-11-12T18:05:11.346Z,10.50
2023-11-12T18:10:15.206Z,13.60
2023-11-12T18:15:20.517Z,19.47
2023-11-12T18:20:25.207Z,22.53
2023-11-12T18:25:28.682Z,24.93
2023-11-12T18:30:32.698Z,20.37
2023-11-12T18:35:36.934Z,22.77
2023-11-12T18:40:43.259Z,32.40
2023-11-12T18:45:46.830Z,19.47
2023-11-12T18:50:52.120Z,14.13
2023-11-12T18:55:56.215Z,14.60
2023-11-12T19:01:00.768Z,8.60
2023-11-12T19:06:04.584Z,12.57
2023-11-12T19:11:08.602Z,15.80
2023-11-12T19:16:12.439Z,13.67
2023-11-12T19:21:16.427Z,11.20
2023-11-12T19:26:23.564Z,9.43
2023-11-12T19:31:33.163Z,14.87
2023-11-12T19:36:41.514Z,16.40
2023-11-12T19:41:45.297Z,14.13
2023-11-12T19:46:49.205Z,13.73
2023-11-12T19:51:52.756Z,13.23
2023-11-12T19:56:58.779Z,12.77
2023-11-12T20:02:07.625Z,11.43
2023-11-12T20:07:11.694Z,13.20
2023-11-12T20:12:15.554Z,11.07
2023-11-12T20:17:19.204Z,10.53
2023-11-12T20:22:22.959Z,12.60
2023-11-12T20:27:26.633Z,15.03
2023-11-12T20:32:30.301Z,15.17
2023-11-12T20:37:34.029Z,23.40
2023-11-12T20:42:38.884Z,28.17
2023-11-12T20:47:42.582Z,24.33
2023-11-12T20:52:46.975Z,19.17
2023-11-12T20:57:53.477Z,15.17
2023-11-12T21:02:57.369Z,13.33
2023-11-12T21:08:01.368Z,12.70
2023-11-12T21:13:04.908Z,13.80
2023-11-12T21:18:12.709Z,8.87
2023-11-12T21:23:16.343Z,9.97
2023-11-12T21:28:21.599Z,11.10
2023-11-12T21:33:25.433Z,10.20
2023-11-12T21:38:28.996Z,15.27
2023-11-12T21:43:33.865Z,23.57
2023-11-12T21:48:38.975Z,23.13
2023-11-12T21:53:42.763Z,23.57
2023-11-12T21:58:46.875Z,25.60
2023-11-12T22:03:51.513Z,27.97
2023-11-12T22:08:56.357Z,39.67
2023-11-12T22:14:00.770Z,39.10
2023-11-12T22:19:08.978Z,29.33
2023-11-12T22:24:12.710Z,34.00
2023-11-12T22:29:16.207Z,36.40
2023-11-12T22:34:22.434Z,26.73
2023-11-12T22:39:26.338Z,21.97
2023-11-12T22:44:30.320Z,11.87
2023-11-12T22:49:33.973Z,10.80
2023-11-12T22:54:38.376Z,11.23
2023-11-12T22:59:42.531Z,10.30
2023-11-12T23:04:46.124Z,10.00
2023-11-12T23:09:49.935Z,9.73
2023-11-12T23:14:53.482Z,9.77
2023-11-12T23:19:57.127Z,11.83
2023-11-12T23:25:01.805Z,11.20
2023-11-12T23:30:08.575Z,11.67
2023-11-12T23:35:12.489Z,12.70
2023-11-12T23:40:16.398Z,9.43
2023-11-12T23:45:20.042Z,10.27
2023-11-12T23:50:26.859Z,13.60
2023-11-12T23:55:30.475Z,13.93
